Time;durP1;ratioP1;P1;durP2;ratioP2;P2;SDS_P1;SDS_P2;PMS_P1;PMS_P2;Temp;Humidity;BMP_temperature;BMP_pressure;BME280_temperature;BME280_humidity;BME280_pressure;Samples;Min_cycle;Max_cycle;Signal;HPM_P1;HPM_P2
2022/05/03 00:01:58;;;;;;;22.02;14.18;;;;;;;13.05;61.41;100188.13;5078144;28;20491;-79
2022/05/03 00:04:42;;;;;;;22.83;13.73;;;;;;;13.03;60.70;100191.47;5078043;28;20039;-77
2022/05/03 00:07:22;;;;;;;25.30;15.45;;;;;;;13.01;59.45;100178.97;5095896;28;20032;-78
2022/05/03 00:10:05;;;;;;;22.70;14.77;;;;;;;12.99;58.41;100177.41;5095878;28;20032;-77
2022/05/03 00:12:36;;;;;;;23.42;15.02;;;;;;;12.99;57.51;100177.41;5065804;28;20048;-77
2022/05/03 00:15:03;;;;;;;24.77;16.27;;;;;;;13.03;57.93;100182.09;5075916;28;20107;-78
2022/05/03 00:17:29;;;;;;;23.55;14.15;;;;;;;12.98;58.03;100175.81;5057848;28;20029;-78
2022/05/03 00:19:55;;;;;;;23.70;14.27;;;;;;;13.04;58.82;100180.81;5057947;28;20035;-79
2022/05/03 00:22:21;;;;;;;25.10;15.30;;;;;;;12.92;60.30;100166.41;5058008;28;20025;-78
2022/05/03 00:24:47;;;;;;;28.33;15.52;;;;;;;12.89;60.34;100173.09;5058054;28;20469;-78
2022/05/03 00:27:14;;;;;;;22.50;16.42;;;;;;;12.69;59.59;100157.97;5076080;28;20024;-78
2022/05/03 00:29:40;;;;;;;24.83;16.08;;;;;;;12.71;60.54;100179.06;5075837;28;20028;-78
2022/05/03 00:32:06;;;;;;;28.17;15.70;;;;;;;12.61;61.58;100176.84;5057831;28;20024;-78
2022/05/03 00:34:33;;;;;;;23.75;15.57;;;;;;;12.53;61.94;100185.03;5041731;28;20036;-78
2022/05/03 00:36:58;;;;;;;25.00;15.27;;;;;;;12.40;63.93;100188.19;5057793;28;20473;-77
2022/05/03 00:39:24;;;;;;;26.13;16.33;;;;;;;12.33;64.23;100182.13;5040886;28;20036;-77
2022/05/03 00:42:01;;;;;;;25.67;16.08;;;;;;;12.24;64.27;100180.13;5075527;28;20056;-77
2022/05/03 00:47:32;;;;;;;24.33;14.98;;;;;;;12.02;64.53;100186.28;5076852;28;20500;-79
2022/05/03 00:50:03;;;;;;;23.00;15.73;;;;;;;11.97;65.52;100186.16;5076879;28;20107;-79
2022/05/03 00:52:45;;;;;;;30.47;17.63;;;;;;;11.88;66.12;100181.34;5041967;28;20028;-78
2022/05/03 00:55:22;;;;;;;29.23;16.77;;;;;;;11.89;65.64;100176.44;5057441;28;20028;-78
2022/05/03 00:58:01;;;;;;;33.83;16.92;;;;;;;11.83;65.57;100189.81;5057263;28;20469;-78
2022/05/03 01:00:27;;;;;;;29.92;16.00;;;;;;;11.74;66.46;100184.19;5057222;28;20028;-77
2022/05/03 01:03:18;;;;;;;26.85;16.08;;;;;;;11.67;68.00;100188.97;5057088;28;20031;-78
2022/05/03 01:05:52;;;;;;;29.20;17.23;;;;;;;11.59;67.78;100187.00;5058435;28;20030;-78
2022/05/03 01:08:28;;;;;;;27.70;17.85;;;;;;;11.51;68.75;100194.34;5075922;28;20024;-78
2022/05/03 01:11:03;;;;;;;26.25;16.42;;;;;;;11.46;68.21;100197.84;5042070;28;20067;-78
2022/05/03 01:13:36;;;;;;;27.52;16.58;;;;;;;11.37;68.35;100198.72;5058392;28;20048;-76
2022/05/03 01:16:05;;;;;;;30.05;18.33;;;;;;;11.27;68.28;100197.22;5042446;28;20031;-78
2022/05/03 01:18:37;;;;;;;32.75;18.55;;;;;;;11.23;67.94;100199.47;5058566;28;20027;-78
2022/05/03 01:21:19;;;;;;;33.42;18.25;;;;;;;11.17;69.06;100196.50;5076542;28;20422;-78
2022/05/03 01:24:22;;;;;;;30.37;17.07;;;;;;;11.04;69.74;100193.13;5041498;28;20115;-78
2022/05/03 01:26:56;;;;;;;28.98;17.63;;;;;;;11.02;68.73;100209.13;5076862;28;20032;-78
2022/05/03 01:29:29;;;;;;;31.90;17.63;;;;;;;10.97;69.53;100196.31;5059025;28;20024;-78
2022/05/03 01:32:03;;;;;;;33.20;16.75;;;;;;;10.94;70.24;100199.34;5077527;28;20024;-78
2022/05/03 01:34:29;;;;;;;28.48;18.27;;;;;;;10.90;69.70;100201.59;5059388;28;20573;-78
2022/05/03 01:37:00;;;;;;;28.40;17.90;;;;;;;10.84;70.36;100198.63;5058934;28;20124;-78
2022/05/03 01:39:48;;;;;;;29.05;18.52;;;;;;;10.77;70.18;100201.81;5076472;28;20031;-78
2022/05/03 01:42:20;;;;;;;28.23;17.38;;;;;;;10.70;69.68;100210.72;5075917;28;20071;-78
2022/05/03 01:45:09;;;;;;;27.75;17.08;;;;;;;10.56;70.65;100206.50;5057691;28;20412;-77
2022/05/03 01:48:20;;;;;;;34.08;17.48;;;;;;;10.53;70.36;100209.53;5057745;28;20024;-78
2022/05/03 01:51:09;;;;;;;26.05;15.75;;;;;;;10.44;70.77;100209.56;5056507;28;20025;-78
2022/05/03 01:53:45;;;;;;;23.98;15.85;;;;;;;10.36;70.37;100206.28;5057760;28;20039;-78
2022/05/03 01:56:36;;;;;;;20.80;14.52;;;;;;;10.28;71.19;100211.53;5041008;28;20036;-77
2022/05/03 01:59:12;;;;;;;24.85;15.73;;;;;;;10.23;70.56;100206.47;5056296;28;20021;-78
2022/05/03 02:01:40;;;;;;;27.73;16.13;;;;;;;10.20;70.84;100200.97;5074143;28;20163;-78
2022/05/03 02:04:36;;;;;;;26.90;15.82;;;;;;;10.15;71.37;100201.59;5075080;28;20020;-76
2022/05/03 02:07:05;;;;;;;26.58;16.30;;;;;;;10.13;70.26;100204.91;5075851;28;20039;-76
2022/05/03 02:09:45;;;;;;;22.65;15.10;;;;;;;10.11;70.25;100201.75;5075594;28;20473;-78
2022/05/03 02:12:15;;;;;;;20.40;14.25;;;;;;;10.10;69.86;100205.88;5083540;28;20048;-78
2022/05/03 02:14:53;;;;;;;29.70;15.23;;;;;;;10.10;69.61;100199.38;5078953;28;20045;-77
2022/05/03 02:17:44;;;;;;;25.45;15.05;;;;;;;10.07;69.94;100203.16;5062177;28;20024;-77
2022/05/03 02:20:09;;;;;;;24.42;16.02;;;;;;;10.05;70.34;100197.19;5096226;28;20082;-77
2022/05/03 02:23:05;;;;;;;23.08;13.40;;;;;;;10.03;69.89;100206.19;5079214;28;20024;-76
2022/05/03 02:25:57;;;;;;;25.45;14.13;;;;;;;10.01;68.74;100197.34;5061780;28;20476;-77
2022/05/03 02:28:28;;;;;;;23.45;13.90;;;;;;;10.00;68.73;100200.69;5046355;28;20038;-76
2022/05/03 02:30:54;;;;;;;21.20;12.32;;;;;;;10.00;68.31;100194.97;5078640;28;20029;-77
2022/05/03 02:33:27;;;;;;;22.52;13.10;;;;;;;10.02;68.02;100204.59;5078450;28;20024;-77
2022/05/03 02:35:57;;;;;;;23.05;14.50;;;;;;;10.02;68.94;100201.75;5082121;28;20043;-77
2022/05/03 02:38:34;;;;;;;23.38;14.55;;;;;;;9.91;68.73;100187.25;5065951;28;20465;-77
2022/05/03 02:41:02;;;;;;;26.73;13.93;;;;;;;9.96;68.35;100195.91;5065337;28;20051;-76
2022/05/03 02:43:30;;;;;;;24.38;13.75;;;;;;;9.99;68.28;100191.34;5100548;28;20028;-78
2022/05/03 02:46:02;;;;;;;24.48;13.02;;;;;;;9.98;67.19;100184.06;5098840;28;20060;-78
2022/05/03 02:48:33;;;;;;;20.50;11.43;;;;;;;10.00;67.04;100189.28;5063708;28;20024;-78
2022/05/03 02:51:03;;;;;;;21.90;12.82;;;;;;;9.99;66.79;100182.81;5063429;28;20115;-77
2022/05/03 02:53:43;;;;;;;18.25;11.10;;;;;;;10.02;66.23;100187.53;5080497;28;20047;-76
2022/05/03 02:56:21;;;;;;;21.10;12.15;;;;;;;9.95;66.10;100179.34;5100525;28;20048;-77
2022/05/03 02:59:12;;;;;;;23.55;12.68;;;;;;;10.00;66.25;100192.94;5081977;28;20024;-76
2022/05/03 03:01:57;;;;;;;20.98;12.30;;;;;;;9.98;65.94;100193.41;5080546;28;20020;-76
2022/05/03 03:04:34;;;;;;;20.90;12.65;;;;;;;10.01;66.26;100190.88;5063715;28;20089;-76
2022/05/03 03:07:01;;;;;;;18.77;12.30;;;;;;;10.01;66.96;100191.66;5098959;28;20032;-77
2022/05/03 03:09:47;;;;;;;26.55;13.35;;;;;;;10.01;67.60;100200.22;5080047;28;20048;-77
2022/05/03 03:12:40;;;;;;;22.20;12.20;;;;;;;9.98;66.66;100196.25;5079674;28;20044;-76
2022/05/03 03:15:07;;;;;;;17.55;11.68;;;;;;;10.01;65.97;100199.41;5080253;28;20028;-76
2022/05/03 03:17:40;;;;;;;18.63;11.48;;;;;;;10.01;65.81;100202.25;5081211;28;20020;-78
2022/05/03 03:20:13;;;;;;;20.63;11.88;;;;;;;9.98;66.03;100199.09;5080966;28;20046;-76
2022/05/03 03:22:39;;;;;;;20.73;11.45;;;;;;;9.96;66.38;100207.31;5098236;28;20073;-78
2022/05/03 03:25:06;;;;;;;19.08;11.82;;;;;;;9.96;66.49;100212.22;5080723;28;20377;-78
2022/05/03 03:27:32;;;;;;;19.00;11.43;;;;;;;9.93;66.34;100213.16;5063575;28;20016;-78
2022/05/03 03:29:59;;;;;;;18.77;11.73;;;;;;;9.91;66.75;100207.19;5065256;28;20020;-78
2022/05/03 03:32:26;;;;;;;21.30;12.70;;;;;;;9.89;66.76;100204.00;5081935;28;20012;-78
2022/05/03 03:34:57;;;;;;;23.52;12.90;;;;;;;9.86;67.50;100208.63;5081696;28;20024;-78
2022/05/03 03:37:24;;;;;;;21.88;11.63;;;;;;;9.85;66.96;100198.50;5082388;28;20024;-78
2022/05/03 03:39:50;;;;;;;21.13;11.18;;;;;;;9.82;66.75;100202.28;5083138;28;20031;-78
2022/05/03 03:42:15;;;;;;;19.58;12.13;;;;;;;9.82;67.19;100192.94;5065793;28;20100;-78
2022/05/03 03:44:40;;;;;;;19.13;12.07;;;;;;;9.87;66.69;100198.78;5082640;28;20020;-78
2022/05/03 03:47:06;;;;;;;18.13;11.52;;;;;;;9.89;65.86;100198.31;5080362;28;20028;-78
2022/05/03 03:49:33;;;;;;;17.42;11.90;;;;;;;9.95;66.20;100202.09;5080656;28;20031;-78
2022/05/03 03:51:59;;;;;;;19.65;11.38;;;;;;;10.03;66.16;100205.41;5080876;28;20024;-78
2022/05/03 03:54:25;;;;;;;19.40;11.27;;;;;;;10.04;65.62;100204.13;5082084;28;20031;-78
2022/05/03 03:56:51;;;;;;;20.33;12.05;;;;;;;10.19;66.59;100213.63;5065640;28;20030;-79
2022/05/03 03:59:17;;;;;;;18.50;10.88;;;;;;;10.26;65.85;100204.75;5063264;28;20048;-78
2022/05/03 04:01:43;;;;;;;19.65;10.52;;;;;;;10.31;65.39;100202.00;5080308;28;20068;-78
2022/05/03 04:04:09;;;;;;;16.52;10.88;;;;;;;10.34;64.28;100203.91;5079338;28;20035;-77
2022/05/03 04:06:35;;;;;;;18.10;11.60;;;;;;;10.44;64.60;100210.38;5080214;28;20154;-78
2022/05/03 04:09:01;;;;;;;20.15;10.52;;;;;;;10.56;64.51;100211.44;5062798;28;20514;-78
2022/05/03 04:11:26;;;;;;;19.52;11.00;;;;;;;10.68;63.10;100210.41;5063252;28;20028;-78
2022/05/03 04:13:52;;;;;;;19.33;10.27;;;;;;;10.79;62.16;100210.69;5063936;28;20035;-78
2022/05/03 04:16:17;;;;;;;16.15;9.45;;;;;;;10.93;62.01;100218.50;5063421;28;20070;-78
2022/05/03 04:18:46;;;;;;;19.13;10.10;;;;;;;11.07;61.68;100219.84;5080559;28;20032;-77
2022/05/03 04:21:18;;;;;;;15.00;9.65;;;;;;;11.21;60.65;100228.47;5079832;28;20458;-78
2022/05/03 04:23:45;;;;;;;13.20;8.52;;;;;;;11.33;61.07;100226.66;5080037;28;20024;-78
2022/05/03 04:26:11;;;;;;;14.43;9.00;;;;;;;11.43;60.17;100224.50;5079285;28;20032;-78
2022/05/03 04:28:38;;;;;;;16.75;11.20;;;;;;;11.48;61.02;100221.00;5079507;28;20024;-78
2022/05/03 04:31:03;;;;;;;17.67;10.05;;;;;;;11.53;59.98;100223.97;5079825;28;20028;-78
2022/05/03 04:33:29;;;;;;;18.17;10.23;;;;;;;11.59;60.63;100221.22;5079494;28;20374;-78
2022/05/03 04:35:54;;;;;;;14.20;10.07;;;;;;;11.70;59.53;100218.56;5062154;28;20039;-79
2022/05/03 04:38:19;;;;;;;14.63;8.95;;;;;;;11.86;58.55;100220.19;5061704;28;20472;-78
2022/05/03 04:40:45;;;;;;;21.60;9.88;;;;;;;11.97;58.34;100234.69;5078826;28;20059;-78
2022/05/03 04:43:11;;;;;;;17.10;10.48;;;;;;;12.06;58.59;100218.25;5080266;28;20064;-78
2022/05/03 04:45:36;;;;;;;17.58;9.15;;;;;;;12.23;57.23;100229.19;5097175;28;20028;-79
2022/05/03 04:48:01;;;;;;;13.30;8.65;;;;;;;12.32;57.77;100227.03;5078284;28;20020;-78
2022/05/03 04:50:27;;;;;;;13.10;7.95;;;;;;;12.47;57.40;100227.81;5061932;28;20073;-79
2022/05/03 04:52:52;;;;;;;18.55;8.75;;;;;;;12.59;57.64;100222.25;5078972;28;20027;-78
2022/05/03 04:55:17;;;;;;;13.55;8.18;;;;;;;12.70;56.62;100222.44;5099713;28;20031;-78
2022/05/03 04:57:43;;;;;;;14.18;8.77;;;;;;;12.83;56.14;100226.53;5098848;28;20032;-78
2022/05/03 05:00:09;;;;;;;12.38;8.38;;;;;;;12.94;55.60;100226.72;5078757;28;20030;-78
2022/05/03 05:02:34;;;;;;;14.43;7.55;;;;;;;12.97;54.96;100210.66;5078591;28;20032;-78
2022/05/03 05:04:59;;;;;;;12.20;7.10;;;;;;;13.14;53.09;100228.03;5096352;28;20038;-78
2022/05/03 05:07:25;;;;;;;12.52;7.00;;;;;;;13.23;52.61;100222.19;5097391;28;20032;-78
2022/05/03 05:12:35;;;;;;;9.68;6.18;;;;;;;13.40;51.77;100237.50;5096504;28;20055;-78
2022/05/03 05:15:00;;;;;;;9.93;5.85;;;;;;;13.48;50.94;100229.28;5096509;28;20027;-79
2022/05/03 05:17:25;;;;;;;9.00;6.63;;;;;;;13.56;50.55;100236.16;5096369;28;20457;-78
2022/05/03 05:19:51;;;;;;;9.45;5.78;;;;;;;13.62;50.55;100229.19;5096107;28;20031;-78
2022/05/03 05:22:16;;;;;;;8.93;6.38;;;;;;;13.75;50.58;100235.34;5095101;28;20024;-78
2022/05/03 05:24:41;;;;;;;8.05;5.65;;;;;;;13.84;49.92;100234.41;5060659;28;20024;-78
2022/05/03 05:27:07;;;;;;;11.60;7.25;;;;;;;13.93;49.75;100236.31;5044105;28;20028;-79
2022/05/03 05:29:33;;;;;;;10.45;6.85;;;;;;;14.10;48.73;100240.94;5095535;28;20035;-78
2022/05/03 05:31:58;;;;;;;10.60;6.63;;;;;;;14.20;48.45;100235.81;5076980;28;20020;-78
2022/05/03 05:34:24;;;;;;;9.90;6.10;;;;;;;14.31;48.12;100243.75;5076883;28;20538;-78
2022/05/03 05:36:49;;;;;;;9.82;6.28;;;;;;;14.49;48.12;100247.06;5095516;28;20357;-78
2022/05/03 05:39:14;;;;;;;8.80;5.93;;;;;;;14.62;47.47;100235.19;5077353;28;20028;-78
2022/05/03 05:41:40;;;;;;;12.63;7.63;;;;;;;14.69;48.39;100246.97;5095341;28;20122;-79
2022/05/03 05:44:05;;;;;;;10.13;6.40;;;;;;;14.85;47.71;100251.25;5094988;28;20028;-79
2022/05/03 05:46:30;;;;;;;9.45;6.15;;;;;;;15.09;47.31;100242.31;5076343;28;20434;-78
2022/05/03 05:48:56;;;;;;;8.55;6.03;;;;;;;15.29;45.85;100230.69;5094453;28;20441;-78
2022/05/03 05:51:21;;;;;;;11.20;6.72;;;;;;;15.52;46.32;100235.25;5076315;28;20484;-78
2022/05/03 05:53:47;;;;;;;14.45;6.28;;;;;;;15.65;46.35;100234.00;5094669;28;20032;-78
2022/05/03 05:56:13;;;;;;;9.30;5.82;;;;;;;15.69;45.32;100246.03;5095070;28;20333;-79
2022/05/03 05:58:39;;;;;;;11.15;5.78;;;;;;;15.74;45.18;100239.53;5076300;28;20032;-80
2022/05/03 06:01:04;;;;;;;9.10;5.50;;;;;;;15.94;43.90;100250.81;5093932;28;20040;-80
2022/05/03 06:03:32;;;;;;;7.75;5.55;;;;;;;16.11;43.92;100237.28;5094070;28;20038;-80
2022/05/03 06:05:59;;;;;;;9.88;5.95;;;;;;;16.31;42.72;100245.69;5094666;28;20153;-79
2022/05/03 06:08:25;;;;;;;10.88;5.97;;;;;;;16.47;42.37;100247.00;5076271;28;20028;-77
2022/05/03 06:10:50;;;;;;;9.75;5.40;;;;;;;16.52;42.48;100236.81;5075688;28;20030;-78
2022/05/03 06:13:17;;;;;;;9.32;5.85;;;;;;;16.69;42.58;100240.47;5094939;28;20552;-79
2022/05/03 06:15:42;;;;;;;6.45;5.05;;;;;;;16.81;42.70;100239.19;5095147;28;20028;-80
2022/05/03 06:18:08;;;;;;;7.75;4.97;;;;;;;16.91;41.69;100240.47;5076165;28;20081;-79
2022/05/03 06:20:34;;;;;;;8.70;5.60;;;;;;;17.03;41.81;100244.91;5094078;28;20038;-79
2022/05/03 06:23:00;;;;;;;10.02;5.70;;;;;;;17.16;40.83;100253.00;5076147;28;20110;-79
2022/05/03 06:25:25;;;;;;;7.35;4.75;;;;;;;17.20;40.23;100239.13;5093881;28;20031;-79
2022/05/03 06:27:51;;;;;;;7.72;4.78;;;;;;;17.31;40.59;100249.84;5043125;28;20048;-80
2022/05/03 06:30:17;;;;;;;7.05;4.95;;;;;;;17.53;40.80;100241.88;5058843;28;20082;-80
2022/05/03 06:32:43;;;;;;;13.15;5.13;;;;;;;17.76;39.51;100245.47;5059608;28;20030;-80
2022/05/03 06:35:11;;;;;;;6.78;4.07;;;;;;;18.24;38.50;100249.97;5093845;28;20060;-80
2022/05/03 06:37:37;;;;;;;7.38;3.65;;;;;;;19.54;37.27;100246.19;5093643;28;20031;-81
2022/05/03 06:40:04;;;;;;;5.50;4.22;;;;;;;21.21;34.07;100244.50;5094202;28;20024;-81
2022/05/03 06:42:34;;;;;;;8.40;4.70;;;;;;;22.96;30.21;100238.00;5075545;28;20032;-81
2022/05/03 06:45:00;;;;;;;4.38;3.72;;;;;;;24.38;29.79;100227.03;5093316;28;20032;-80
2022/05/03 06:47:27;;;;;;;6.93;3.78;;;;;;;26.01;25.57;100239.06;5075372;28;20055;-80
2022/05/03 06:49:52;;;;;;;6.72;3.72;;;;;;;27.22;24.72;100242.66;5093438;28;20465;-79
2022/05/03 06:52:19;;;;;;;5.00;3.80;;;;;;;28.18;21.96;100241.47;5075374;28;20031;-80
2022/05/03 06:54:45;;;;;;;6.93;4.35;;;;;;;28.93;21.77;100241.03;5093953;28;20032;-80
2022/05/03 06:57:10;;;;;;;5.20;4.18;;;;;;;29.29;20.73;100252.75;5093530;28;20032;-81
2022/05/03 06:59:35;;;;;;;6.32;4.55;;;;;;;29.62;20.48;100250.22;5058531;28;20031;-78
2022/05/03 07:02:00;;;;;;;3.73;3.10;;;;;;;30.41;20.68;100227.66;5093522;28;20032;-79
2022/05/03 07:04:26;;;;;;;7.95;3.70;;;;;;;30.97;19.22;100250.16;5093316;28;20395;-79
2022/05/03 07:06:51;;;;;;;3.63;3.33;;;;;;;31.76;17.73;100249.94;5093344;28;20032;-79
2022/05/03 07:09:16;;;;;;;6.03;3.00;;;;;;;31.95;17.49;100256.44;5093579;28;20028;-79
2022/05/03 07:11:42;;;;;;;4.40;3.40;;;;;;;32.12;18.71;100261.28;5093127;28;20102;-79
2022/05/03 07:14:07;;;;;;;4.40;2.95;;;;;;;32.31;16.72;100258.19;5058592;28;20282;-79
2022/05/03 07:16:32;;;;;;;4.27;3.27;;;;;;;32.33;17.44;100257.53;5075123;28;20028;-79
2022/05/03 07:24:25;;;;;;;3.40;3.10;;;;;;;33.65;17.92;100252.09;5096930;28;20097;-77
2022/05/03 07:26:51;;;;;;;3.50;3.20;;;;;;;33.98;15.77;100255.66;5079384;28;20024;-78
2022/05/03 07:29:16;;;;;;;4.55;3.80;;;;;;;33.60;16.09;100259.19;5103091;28;20038;-79
2022/05/03 07:31:42;;;;;;;4.88;3.50;;;;;;;33.49;16.60;100271.78;5102812;28;20032;-79
2022/05/03 07:34:08;;;;;;;5.28;3.53;;;;;;;34.03;17.22;100259.63;5103531;28;20024;-79
2022/05/03 07:36:34;;;;;;;4.32;3.80;;;;;;;34.39;15.92;100258.84;5103404;28;20433;-78
2022/05/03 07:38:59;;;;;;;5.20;3.78;;;;;;;33.03;16.55;100263.63;5079353;28;20069;-77
2022/05/03 07:41:24;;;;;;;5.40;3.87;;;;;;;33.08;17.31;100265.44;5097592;28;20039;-78
2022/05/03 07:43:50;;;;;;;3.97;3.45;;;;;;;33.53;16.69;100234.38;5111059;28;20289;-77
2022/05/03 07:46:16;;;;;;;4.38;3.15;;;;;;;33.60;16.65;100265.09;5117266;28;20028;-77
2022/05/03 07:48:41;;;;;;;4.30;3.38;;;;;;;34.19;17.03;100258.41;5117802;28;20080;-78
2022/05/03 07:51:07;;;;;;;3.17;2.88;;;;;;;34.19;15.27;100261.38;5112872;28;20024;-80
2022/05/03 07:53:32;;;;;;;3.30;3.00;;;;;;;33.81;16.11;100264.94;5099314;28;20030;-78
2022/05/03 07:55:58;;;;;;;4.47;3.00;;;;;;;33.27;16.16;100274.84;5097779;28;20032;-79
2022/05/03 07:58:23;;;;;;;4.53;2.70;;;;;;;32.12;16.30;100270.91;5078823;28;20047;-80
2022/05/03 08:00:49;;;;;;;3.72;2.72;;;;;;;31.37;17.20;100264.88;5078324;28;20023;-78
2022/05/03 08:03:16;;;;;;;3.10;2.72;;;;;;;31.76;16.76;100270.56;5078035;28;20028;-78
2022/05/03 08:05:42;;;;;;;4.80;3.30;;;;;;;32.05;17.51;100274.06;5097158;28;20028;-79
2022/05/03 08:08:07;;;;;;;3.35;2.80;;;;;;;32.56;17.22;100270.19;5079193;28;20443;-78
2022/05/03 08:10:33;;;;;;;3.88;2.50;;;;;;;33.12;16.24;100266.47;5097365;28;20043;-79
2022/05/03 08:12:58;;;;;;;2.58;2.38;;;;;;;33.25;16.49;100273.97;5097141;28;20051;-79
2022/05/03 08:15:23;;;;;;;4.60;3.20;;;;;;;33.47;16.47;100274.59;5078843;28;20032;-79
2022/05/03 08:17:49;;;;;;;2.88;2.22;;;;;;;33.96;14.85;100270.28;5080085;28;20028;-78
2022/05/03 08:20:15;;;;;;;3.15;2.83;;;;;;;33.57;14.84;100275.22;5079827;28;20028;-79
2022/05/03 08:22:41;;;;;;;3.58;2.42;;;;;;;34.11;15.27;100272.69;5078670;28;20074;-79
2022/05/03 08:25:08;;;;;;;3.63;2.92;;;;;;;34.42;15.08;100274.53;5080480;28;20028;-79
2022/05/03 08:27:36;;;;;;;2.90;2.60;;;;;;;34.44;14.99;100277.63;5064509;28;20023;-79
2022/05/03 08:30:02;;;;;;;5.43;2.72;;;;;;;34.11;14.84;100280.78;5065623;28;20024;-79
2022/05/03 08:32:27;;;;;;;5.88;2.80;;;;;;;34.02;15.14;100276.59;5077401;28;20063;-79
2022/05/03 08:34:53;;;;;;;5.10;3.20;;;;;;;34.54;14.23;100276.00;5060823;28;20028;-79
2022/05/03 08:42:46;;;;;;;3.03;2.47;;;;;;;34.41;13.92;100273.75;5099155;28;20082;-79
2022/05/03 08:45:11;;;;;;;3.20;2.83;;;;;;;33.46;15.48;100273.81;5078825;28;20500;-79
2022/05/03 08:47:38;;;;;;;3.35;2.75;;;;;;;32.67;15.49;100276.78;5077801;28;20309;-77
2022/05/03 08:50:07;;;;;;;3.40;3.10;;;;;;;32.13;16.32;100275.41;5077906;28;20020;-79
2022/05/03 08:52:47;;;;;;;3.92;2.97;;;;;;;31.93;16.94;100267.31;5096886;28;20441;-78
2022/05/03 08:55:13;;;;;;;3.08;2.88;;;;;;;31.45;16.12;100268.38;5096850;28;20510;-79
2022/05/03 08:57:39;;;;;;;3.55;3.00;;;;;;;30.68;17.30;100273.78;5096946;28;20016;-79
2022/05/03 09:00:06;;;;;;;3.38;2.67;;;;;;;30.21;18.36;100276.13;5078048;28;20350;-80
2022/05/03 09:02:34;;;;;;;3.47;3.00;;;;;;;30.16;17.22;100270.56;5077431;28;20522;-79
2022/05/03 09:05:01;;;;;;;3.08;2.78;;;;;;;30.40;18.42;100264.34;5069717;28;20046;-78
2022/05/03 09:07:27;;;;;;;5.22;3.10;;;;;;;31.09;16.73;100262.81;5112031;28;20036;-79
2022/05/03 09:09:54;;;;;;;4.60;2.95;;;;;;;31.55;16.15;100262.44;5095913;28;20024;-78
2022/05/03 09:12:28;;;;;;;5.78;3.08;;;;;;;31.76;17.05;100264.66;5113333;28;20040;-78
2022/05/03 09:14:59;;;;;;;3.85;3.17;;;;;;;31.99;15.38;100265.56;5090640;28;20020;-78
2022/05/03 09:17:43;;;;;;;3.88;3.25;;;;;;;31.74;16.03;100259.38;5091266;28;20044;-78
2022/05/03 09:26:19;;;;;;;3.53;2.75;;;;;;;31.27;18.50;100253.16;5080682;28;20039;-79
2022/05/03 09:28:51;;;;;;;4.40;3.00;;;;;;;31.22;17.46;100247.59;5094928;28;20532;-79
2022/05/03 09:31:35;;;;;;;4.63;2.90;;;;;;;30.84;16.54;100248.47;5095771;28;20028;-78
2022/05/03 09:34:19;;;;;;;4.07;2.90;;;;;;;30.59;17.86;100251.78;5095068;28;20027;-80
2022/05/03 09:36:52;;;;;;;4.90;3.25;;;;;;;30.59;18.85;100257.69;5095753;28;20028;-80
2022/05/03 09:39:22;;;;;;;3.35;3.05;;;;;;;30.68;18.87;100248.09;5094809;28;20028;-80
2022/05/03 09:42:03;;;;;;;5.22;3.05;;;;;;;30.87;20.62;100244.31;5094381;28;20024;-78
2022/05/03 09:44:30;;;;;;;4.38;3.30;;;;;;;30.92;17.59;100243.19;5094604;28;20032;-79
2022/05/03 09:46:56;;;;;;;4.10;3.17;;;;;;;30.77;18.19;100246.50;5094770;28;20116;-80
2022/05/03 09:49:48;;;;;;;4.10;3.70;;;;;;;30.47;18.59;100244.25;5094500;28;20047;-79
2022/05/03 09:52:35;;;;;;;5.47;3.50;;;;;;;30.13;19.03;100243.19;5089249;28;20040;-80
2022/05/03 09:55:11;;;;;;;5.95;3.90;;;;;;;29.70;20.28;100239.09;5076345;28;20024;-79
2022/05/03 09:57:39;;;;;;;4.70;3.72;;;;;;;29.13;20.18;100239.72;5093743;28;20102;-80
2022/05/03 10:00:09;;;;;;;3.72;3.30;;;;;;;29.05;20.29;100233.22;5093939;28;20110;-80
2022/05/03 10:02:40;;;;;;;5.25;3.45;;;;;;;29.00;19.31;100243.84;5075664;28;20496;-78
2022/05/03 10:05:06;;;;;;;5.20;3.63;;;;;;;28.86;19.79;100233.91;5075656;28;20110;-80
2022/05/03 10:07:32;;;;;;;4.63;3.08;;;;;;;28.92;21.53;100227.75;5094540;28;20058;-79
2022/05/03 10:09:57;;;;;;;4.25;3.25;;;;;;;28.90;21.99;100224.66;5093773;28;20504;-79
2022/05/03 10:12:23;;;;;;;4.47;3.22;;;;;;;28.86;21.24;100230.22;5058665;28;20036;-80
2022/05/03 10:14:48;;;;;;;3.40;3.10;;;;;;;28.78;22.17;100221.50;5059102;28;20108;-81
2022/05/03 10:20:39;;;;;;;7.32;3.97;;;;;;;28.63;19.92;100210.00;5078598;28;20089;-79
2022/05/03 10:23:28;;;;;;;4.15;3.75;;;;;;;28.44;20.26;100227.47;5060617;28;20492;-80
2022/05/03 10:25:54;;;;;;;4.25;3.50;;;;;;;28.04;21.55;100221.91;5059102;28;20016;-79
2022/05/03 10:28:20;;;;;;;4.78;3.22;;;;;;;27.79;22.09;100213.22;5094310;28;20520;-79
2022/05/03 10:31:04;;;;;;;4.80;3.55;;;;;;;27.75;24.31;100204.09;5058901;28;20469;-80
2022/05/03 10:33:29;;;;;;;5.88;3.20;;;;;;;27.60;21.56;100213.06;5093732;28;20035;-80
2022/05/03 10:35:55;;;;;;;3.78;3.20;;;;;;;27.70;22.05;100213.91;5093809;28;20095;-81
2022/05/03 10:38:40;;;;;;;5.93;3.35;;;;;;;27.92;21.59;100204.84;5093442;28;20028;-79
2022/05/03 10:41:08;;;;;;;4.13;3.20;;;;;;;27.55;21.80;100190.66;5075636;28;20020;-79
2022/05/03 10:43:34;;;;;;;3.22;2.92;;;;;;;27.44;23.06;100194.84;5075966;28;20028;-80
2022/05/03 10:46:11;;;;;;;6.03;3.17;;;;;;;27.51;25.11;100202.81;5075696;28;20017;-80
2022/05/03 10:48:41;;;;;;;4.18;3.15;;;;;;;27.59;26.66;100193.94;5075481;28;20024;-80
2022/05/03 10:51:08;;;;;;;4.28;3.67;;;;;;;27.55;24.21;100200.22;5059951;28;20032;-80
2022/05/03 10:53:34;;;;;;;5.57;3.88;;;;;;;27.69;23.86;100192.66;5075913;28;20103;-80
2022/05/03 10:56:05;;;;;;;6.07;4.00;;;;;;;27.38;22.21;100186.31;5095267;28;20020;-80
2022/05/03 10:58:40;;;;;;;4.75;3.85;;;;;;;26.85;22.21;100194.78;5097765;28;20035;-80
2022/05/03 11:01:21;;;;;;;3.97;3.53;;;;;;;26.42;22.82;100202.69;5097568;28;20081;-78
2022/05/03 11:03:47;;;;;;;4.15;3.47;;;;;;;26.21;24.07;100191.31;5097577;28;20052;-79
2022/05/03 11:06:18;;;;;;;6.83;4.10;;;;;;;25.82;24.17;100189.13;5097523;28;20504;-80
2022/05/03 11:09:08;;;;;;;5.45;3.50;;;;;;;25.82;24.61;100197.88;5079157;28;20314;-80
2022/05/03 11:11:42;;;;;;;5.30;3.53;;;;;;;25.88;24.44;100197.69;5097310;28;20067;-79
2022/05/03 11:14:18;;;;;;;4.95;3.75;;;;;;;26.10;23.82;100182.22;5097759;28;20034;-79
2022/05/03 11:17:03;;;;;;;4.28;3.13;;;;;;;26.13;23.87;100184.72;5097700;28;20377;-80
2022/05/03 11:19:29;;;;;;;4.10;3.08;;;;;;;26.05;23.05;100186.13;5097515;28;20034;-80
2022/05/03 11:21:55;;;;;;;3.38;3.03;;;;;;;25.97;22.88;100183.22;5079127;28;20027;-78
2022/05/03 11:24:25;;;;;;;3.95;3.28;;;;;;;25.82;23.06;100182.50;5097429;28;20074;-80
2022/05/03 11:26:52;;;;;;;4.50;3.20;;;;;;;25.71;23.04;100184.50;5062319;28;20051;-80
2022/05/03 11:29:19;;;;;;;4.00;2.72;;;;;;;25.63;23.15;100180.84;5097510;28;20089;-81
2022/05/03 11:31:51;;;;;;;4.28;3.15;;;;;;;25.61;23.55;100185.69;5049671;28;20474;-76
2022/05/03 11:34:18;;;;;;;5.60;3.05;;;;;;;25.59;23.92;100179.69;5059879;28;20500;-81
2022/05/03 11:36:46;;;;;;;4.68;3.00;;;;;;;25.70;24.19;100176.34;5060193;28;20025;-84
2022/05/03 11:39:12;;;;;;;4.80;3.17;;;;;;;25.91;22.95;100173.91;5060582;28;20028;-81
2022/05/03 11:41:39;;;;;;;3.85;3.10;;;;;;;25.88;23.04;100168.47;5043660;28;20438;-86
2022/05/03 11:44:05;;;;;;;3.67;3.35;;;;;;;25.90;23.25;100168.69;5060349;28;20028;-85
2022/05/03 11:46:30;;;;;;;3.30;2.80;;;;;;;25.88;23.20;100166.34;5059689;28;20157;-84
2022/05/03 11:49:01;;;;;;;3.42;3.13;;;;;;;25.89;23.05;100164.19;5077251;28;20451;-81
2022/05/03 11:57:40;;;;;;;4.53;2.65;;;;;;;26.14;24.02;100157.06;5048661;28;20094;-79
2022/05/03 12:00:13;;;;;;;3.90;3.10;;;;;;;26.02;23.86;100155.19;5058610;28;20028;-79
2022/05/03 12:02:44;;;;;;;4.60;2.92;;;;;;;25.84;23.88;100160.13;5058803;28;20381;-78
2022/05/03 12:05:18;;;;;;;4.60;3.38;;;;;;;25.58;24.49;100163.53;5058181;28;20097;-77